createdAt,value
2018-03-04T00:00:16.208Z,26.83
2018-03-04T00:02:17.202Z,28.40
2018-03-04T00:04:18.237Z,28.83
2018-03-04T00:06:19.478Z,24.73
2018-03-04T00:08:20.548Z,30.80
2018-03-04T00:10:22.570Z,28.10
2018-03-04T00:12:23.687Z,27.17
2018-03-04T00:14:24.807Z,28.70
2018-03-04T00:18:54.913Z,28.70
2018-03-04T00:23:25.019Z,26.92
2018-03-04T00:25:26.056Z,26.05
2018-03-04T00:27:29.970Z,26.55
2018-03-04T00:29:31.516Z,26.67
2018-03-04T00:31:47.370Z,30.15
2018-03-04T00:33:49.192Z,27.25
2018-03-04T00:35:50.696Z,27.15
2018-03-04T00:37:51.726Z,21.77
2018-03-04T00:39:52.787Z,26.08
2018-03-04T00:41:55.591Z,27.25
2018-03-04T00:44:00.746Z,25.92
2018-03-04T00:46:01.808Z,24.30
2018-03-04T00:48:03.629Z,26.62
2018-03-04T00:50:04.780Z,27.80
2018-03-04T00:52:05.879Z,27.65
2018-03-04T00:54:06.882Z,25.95
2018-03-04T00:56:08.628Z,27.40
2018-03-04T00:58:11.052Z,25.40
2018-03-04T01:00:16.597Z,24.23
2018-03-04T01:02:17.872Z,29.12
2018-03-04T01:04:18.902Z,28.42
2018-03-04T01:06:20.121Z,27.98
2018-03-04T01:08:21.100Z,27.08
2018-03-04T01:10:24.244Z,32.70
2018-03-04T01:19:52.652Z,25.88
2018-03-04T01:21:53.739Z,28.52
2018-03-04T01:23:54.728Z,26.62
2018-03-04T01:25:56.729Z,26.83
2018-03-04T01:30:25.460Z,31.35
2018-03-04T01:32:26.470Z,29.87
2018-03-04T01:36:55.539Z,31.48
2018-03-04T01:38:56.523Z,29.05
2018-03-04T01:40:57.493Z,30.30
2018-03-04T01:42:58.552Z,29.27
2018-03-04T01:44:59.552Z,27.92
2018-03-04T01:52:42.422Z,28.75
2018-03-04T01:54:43.866Z,25.42
2018-03-04T01:56:45.546Z,28.48
2018-03-04T01:58:47.180Z,29.75
2018-03-04T02:00:48.316Z,32.40
2018-03-04T02:02:49.308Z,33.50
2018-03-04T02:04:57.298Z,32.72
2018-03-04T02:06:58.691Z,27.85
2018-03-04T02:08:59.722Z,30.25
2018-03-04T02:11:00.734Z,29.30
2018-03-04T02:13:01.766Z,32.80
2018-03-04T02:15:02.820Z,29.12
2018-03-04T02:17:03.924Z,34.72
2018-03-04T02:19:27.196Z,31.55
2018-03-04T02:28:51.870Z,32.50
2018-03-04T02:30:53.629Z,31.17
2018-03-04T02:32:54.720Z,34.37
2018-03-04T02:34:55.697Z,32.78
2018-03-04T02:36:56.748Z,36.40
2018-03-04T02:41:26.458Z,38.30
2018-03-04T02:44:28.567Z,35.08
2018-03-04T02:48:57.996Z,38.15
2018-03-04T02:50:59.001Z,33.78
2018-03-04T02:55:29.102Z,30.60
2018-03-04T02:57:56.432Z,31.48
2018-03-04T02:59:58.194Z,30.75
2018-03-04T03:01:59.188Z,26.08
2018-03-04T03:04:00.162Z,32.25
2018-03-04T03:06:01.175Z,32.50
2018-03-04T03:08:02.192Z,31.62
2018-03-04T03:10:27.666Z,27.87
2018-03-04T03:12:28.734Z,33.13
2018-03-04T03:14:29.805Z,33.40
2018-03-04T03:16:31.474Z,33.17
2018-03-04T03:18:32.617Z,30.58
2018-03-04T03:20:33.668Z,32.97
2018-03-04T03:22:34.639Z,32.55
2018-03-04T03:24:35.662Z,33.07
2018-03-04T03:26:36.692Z,32.72
2018-03-04T03:28:37.659Z,26.50
2018-03-04T03:30:38.874Z,31.57
2018-03-04T03:32:40.108Z,35.17
2018-03-04T03:34:41.103Z,34.20
2018-03-04T03:36:42.106Z,36.38
2018-03-04T03:38:43.321Z,34.28
2018-03-04T03:43:13.709Z,35.33
2018-03-04T03:45:14.791Z,40.83
2018-03-04T03:47:15.881Z,37.90
2018-03-04T03:49:17.464Z,35.60
2018-03-04T03:51:19.193Z,33.75
2018-03-04T03:53:20.237Z,32.40
2018-03-04T03:57:58.924Z,33.00
2018-03-04T04:00:24.790Z,29.70
2018-03-04T04:02:36.532Z,31.58
2018-03-04T04:07:05.668Z,33.00
2018-03-04T04:09:06.666Z,44.92
2018-03-04T04:11:07.656Z,34.10
2018-03-04T04:13:08.665Z,36.03
2018-03-04T04:15:09.626Z,34.33
2018-03-04T04:17:10.663Z,36.03
2018-03-04T04:19:11.920Z,35.88
2018-03-04T04:21:26.916Z,33.00
2018-03-04T04:23:27.896Z,35.67
2018-03-04T04:25:28.892Z,37.20
2018-03-04T04:29:59.805Z,35.85
2018-03-04T04:34:29.494Z,40.75
2018-03-04T04:36:30.542Z,39.45
2018-03-04T04:38:31.561Z,34.27
2018-03-04T04:40:32.587Z,36.17
2018-03-04T04:42:33.544Z,36.13
2018-03-04T04:44:36.884Z,33.27
2018-03-04T04:46:37.989Z,36.85
2018-03-04T04:48:39.203Z,35.22
2018-03-04T04:50:40.283Z,33.40
2018-03-04T04:52:41.337Z,32.47
2018-03-04T04:54:56.609Z,38.13
2018-03-04T04:56:57.615Z,35.65
2018-03-04T05:01:36.926Z,26.83
2018-03-04T05:03:37.897Z,42.95
2018-03-04T05:05:38.899Z,40.50
2018-03-04T05:07:39.888Z,44.73
2018-03-04T05:14:37.712Z,41.53
2018-03-04T05:16:39.040Z,38.78
2018-03-04T05:18:40.064Z,39.10
2018-03-04T05:20:41.147Z,37.92
2018-03-04T05:22:42.128Z,32.88
2018-03-04T05:24:43.685Z,37.30
2018-03-04T05:26:44.863Z,40.65
2018-03-04T05:28:48.684Z,33.05
2018-03-04T05:30:49.877Z,43.03
2018-03-04T05:32:51.181Z,41.70
2018-03-04T05:34:52.231Z,38.75
2018-03-04T05:37:07.191Z,36.67
2018-03-04T05:39:08.169Z,46.47
2018-03-04T05:41:10.266Z,45.43
2018-03-04T05:43:11.273Z,53.03
2018-03-04T05:45:12.331Z,43.95
2018-03-04T05:47:38.067Z,41.42
2018-03-04T05:49:39.076Z,41.60
2018-03-04T05:51:40.129Z,42.90
2018-03-04T05:53:41.158Z,45.00
2018-03-04T05:56:06.295Z,43.33
2018-03-04T06:00:37.515Z,38.83
2018-03-04T06:02:38.528Z,36.03
2018-03-04T06:05:06.395Z,41.33
2018-03-04T06:07:07.551Z,38.15
2018-03-04T06:11:44.970Z,45.42
2018-03-04T06:13:45.955Z,51.85
2018-03-04T06:15:46.966Z,45.60
2018-03-04T06:17:48.049Z,56.37
2018-03-04T06:22:17.012Z,42.30
2018-03-04T06:26:47.223Z,42.75
2018-03-04T06:31:27.129Z,46.28
2018-03-04T06:33:28.646Z,43.35
2018-03-04T06:35:29.675Z,44.08
2018-03-04T06:37:30.687Z,27.60
2018-03-04T06:39:31.680Z,46.50
2018-03-04T06:41:46.606Z,42.22
2018-03-04T06:43:47.626Z,41.67
2018-03-04T06:45:48.800Z,34.15
2018-03-04T06:47:49.791Z,47.92
2018-03-04T06:49:50.818Z,45.90
2018-03-04T06:51:52.033Z,54.80
2018-03-04T06:53:53.066Z,33.58
2018-03-04T06:55:54.053Z,44.67
2018-03-04T06:57:55.079Z,40.63
2018-03-04T07:00:16.667Z,48.92
2018-03-04T07:02:17.692Z,46.37
2018-03-04T07:04:18.647Z,53.40
2018-03-04T07:08:46.494Z,45.85
2018-03-04T07:13:02.380Z,40.50
2018-03-04T07:15:17.214Z,44.92
2018-03-04T07:17:18.283Z,44.78
2018-03-04T07:19:19.332Z,48.35
2018-03-04T07:21:20.403Z,46.90
2018-03-04T07:23:21.372Z,50.58
2018-03-04T07:25:46.953Z,49.17
2018-03-04T07:30:15.864Z,45.53
2018-03-04T07:32:16.877Z,44.92
2018-03-04T07:34:18.145Z,44.47
2018-03-04T07:36:19.153Z,42.90
2018-03-04T07:38:46.778Z,43.45
2018-03-04T07:40:47.804Z,46.25
2018-03-04T07:42:48.857Z,48.72
2018-03-04T07:44:49.857Z,44.80
2018-03-04T07:47:16.866Z,51.65
2018-03-04T07:56:44.166Z,48.05
2018-03-04T07:58:45.364Z,46.05
2018-03-04T08:00:47.471Z,46.70
2018-03-04T08:05:17.775Z,38.78
2018-03-04T08:07:18.798Z,47.15
2018-03-04T08:09:34.456Z,47.53
2018-03-04T08:11:36.081Z,47.38
2018-03-04T08:13:47.017Z,52.33
2018-03-04T08:18:15.712Z,60.17
2018-03-04T08:22:46.963Z,46.00
2018-03-04T08:27:23.853Z,49.35
2018-03-04T08:31:56.609Z,49.40
2018-03-04T08:33:57.609Z,46.67
2018-03-04T08:35:58.988Z,52.10
2018-03-04T08:38:00.246Z,51.05
2018-03-04T08:40:01.578Z,51.25
2018-03-04T08:42:02.667Z,49.42
2018-03-04T08:44:03.724Z,50.30
2018-03-04T08:46:04.812Z,50.33
2018-03-04T08:48:05.891Z,53.60
2018-03-04T08:50:07.091Z,49.90
2018-03-04T08:52:08.125Z,51.30
2018-03-04T08:54:09.186Z,47.63
2018-03-04T08:56:10.176Z,48.78
2018-03-04T08:58:38.215Z,50.93
2018-03-04T09:00:39.210Z,55.88
2018-03-04T09:02:40.332Z,50.87
2018-03-04T09:07:18.108Z,52.13
2018-03-04T09:09:19.126Z,37.22
2018-03-04T09:11:31.267Z,56.08
2018-03-04T09:13:37.969Z,50.97
2018-03-04T09:15:38.971Z,57.62
2018-03-04T09:20:10.250Z,61.88
2018-03-04T09:22:11.384Z,52.22
2018-03-04T09:24:12.410Z,50.03
2018-03-04T09:26:13.485Z,53.15
2018-03-04T09:28:15.167Z,49.38
2018-03-04T09:30:16.180Z,57.27
2018-03-04T09:32:17.199Z,50.40
2018-03-04T09:34:18.313Z,58.08
2018-03-04T09:36:19.339Z,53.10
2018-03-04T09:38:21.151Z,60.70
2018-03-04T09:40:22.122Z,52.47
2018-03-04T09:42:23.087Z,60.67
2018-03-04T09:44:24.148Z,53.50
2018-03-04T09:46:25.207Z,62.65
2018-03-04T09:48:27.019Z,52.57
2018-03-04T09:50:28.115Z,59.30
2018-03-04T09:52:29.089Z,52.50
2018-03-04T09:54:30.229Z,52.80
2018-03-04T09:56:31.196Z,50.00
2018-03-04T09:58:32.805Z,50.53
2018-03-04T10:00:34.872Z,52.55
2018-03-04T10:02:35.975Z,52.80
2018-03-04T10:04:37.851Z,54.78
2018-03-04T10:06:38.877Z,53.27
2018-03-04T10:08:41.574Z,57.08
2018-03-04T10:10:42.634Z,53.53
2018-03-04T10:12:44.207Z,59.47
2018-03-04T10:14:45.247Z,56.50
2018-03-04T10:16:46.198Z,63.30
2018-03-04T10:18:47.793Z,53.40
2018-03-04T10:20:53.340Z,51.90
2018-03-04T10:22:55.100Z,52.85
2018-03-04T10:24:56.568Z,50.83
2018-03-04T10:26:58.089Z,52.35
2018-03-04T10:28:59.154Z,52.43
2018-03-04T10:31:00.100Z,55.65
2018-03-04T10:33:01.109Z,54.03
2018-03-04T10:35:02.123Z,56.33
2018-03-04T10:37:03.106Z,55.13
2018-03-04T10:39:04.097Z,49.67
2018-03-04T10:41:05.496Z,46.17
2018-03-04T10:43:06.594Z,56.33
2018-03-04T10:45:09.060Z,49.10
2018-03-04T10:47:10.911Z,61.05
2018-03-04T10:49:11.975Z,55.63
2018-03-04T10:51:17.646Z,63.42
2018-03-04T10:53:18.661Z,55.93
2018-03-04T10:55:19.655Z,63.03
2018-03-04T10:57:21.727Z,56.10
2018-03-04T10:59:22.696Z,66.95
2018-03-04T11:01:27.502Z,54.13
2018-03-04T11:03:28.471Z,63.97
2018-03-04T11:05:31.658Z,57.67
2018-03-04T11:07:33.476Z,64.50
2018-03-04T11:09:34.467Z,52.40
2018-03-04T11:11:36.279Z,52.13
2018-03-04T11:13:37.406Z,53.33
2018-03-04T11:15:39.333Z,52.43
2018-03-04T11:17:41.150Z,53.70
2018-03-04T11:19:46.848Z,49.60
2018-03-04T11:21:48.366Z,51.13
2018-03-04T11:26:11.691Z,53.90
2018-03-04T11:28:15.034Z,52.30
2018-03-04T11:32:54.041Z,53.00
2018-03-04T11:34:57.252Z,53.13
2018-03-04T11:36:58.394Z,57.23
2018-03-04T11:39:01.886Z,57.38
2018-03-04T11:41:08.511Z,57.03
2018-03-04T11:43:11.715Z,53.67
2018-03-04T11:45:29.948Z,46.00
2018-03-04T11:47:30.937Z,50.07
2018-03-04T11:49:52.485Z,49.23
2018-03-04T11:52:15.700Z,52.60
2018-03-04T11:54:18.895Z,51.17
2018-03-04T11:56:19.997Z,56.25
2018-03-04T11:58:21.000Z,51.03
2018-03-04T12:00:27.249Z,56.07
2018-03-04T12:02:28.354Z,55.87
2018-03-04T12:07:06.978Z,53.20
2018-03-04T12:16:42.136Z,58.07
2018-03-04T12:18:43.101Z,66.87
2018-03-04T12:20:54.481Z,58.33
2018-03-04T12:22:55.461Z,56.73
2018-03-04T12:24:56.432Z,58.20
2018-03-04T12:26:57.403Z,60.50
2018-03-04T12:29:11.609Z,60.40
2018-03-04T12:31:13.773Z,60.67
2018-03-04T12:33:14.741Z,56.73
2018-03-04T12:35:48.316Z,58.40
2018-03-04T12:37:49.261Z,57.30
2018-03-04T12:39:57.784Z,57.30
2018-03-04T12:47:27.090Z,54.00
2018-03-04T12:49:28.036Z,56.03
2018-03-04T12:59:25.012Z,55.23
2018-03-04T13:01:26.575Z,52.27
2018-03-04T13:03:29.090Z,54.93
2018-03-04T13:05:30.350Z,54.63
2018-03-04T13:07:31.924Z,57.50
2018-03-04T13:09:40.898Z,54.17
2018-03-04T13:11:45.320Z,63.15
2018-03-04T13:13:46.698Z,60.70
2018-03-04T13:15:47.704Z,56.93
2018-03-04T13:17:48.668Z,58.20
2018-03-04T13:20:02.011Z,62.78
2018-03-04T13:22:03.045Z,55.90
2018-03-04T13:24:04.007Z,60.10
2018-03-04T13:34:21.618Z,69.70
2018-03-04T13:36:24.405Z,60.93
2018-03-04T13:41:25.291Z,57.83
2018-03-04T13:43:26.306Z,59.93
2018-03-04T13:45:27.297Z,59.17
2018-03-04T13:47:28.254Z,59.37
2018-03-04T13:49:49.724Z,61.10
2018-03-04T13:57:07.639Z,58.20
2018-03-04T13:59:08.617Z,57.40
2018-03-04T14:03:47.116Z,59.22
2018-03-04T14:13:41.611Z,62.20
2018-03-04T14:31:21.789Z,58.20
2018-03-04T14:35:59.447Z,60.37
2018-03-04T14:38:00.396Z,57.63
2018-03-04T14:42:38.336Z,58.37
2018-03-04T14:44:42.852Z,60.20
2018-03-04T14:46:43.822Z,56.13
2018-03-04T14:48:44.762Z,55.47
2018-03-04T14:50:51.934Z,60.57
2018-03-04T14:55:21.934Z,53.13
2018-03-04T14:57:24.511Z,55.53
2018-03-04T14:59:25.677Z,53.27
2018-03-04T15:01:27.029Z,52.43
2018-03-04T15:03:28.072Z,53.80
2018-03-04T15:05:29.085Z,51.40
2018-03-04T15:07:52.155Z,55.45
2018-03-04T15:09:53.235Z,52.93
2018-03-04T15:11:54.946Z,51.77
2018-03-04T15:13:56.052Z,52.37
2018-03-04T15:15:57.067Z,51.60
2018-03-04T15:18:04.732Z,55.95
2018-03-04T15:20:09.859Z,54.30
2018-03-04T15:37:24.020Z,49.63
2018-03-04T15:39:25.088Z,48.67
2018-03-04T15:41:26.927Z,50.27
2018-03-04T15:43:27.999Z,51.13
2018-03-04T15:45:49.878Z,60.33
2018-03-04T15:47:50.868Z,56.30
2018-03-04T15:52:24.843Z,53.90
2018-03-04T15:54:43.384Z,59.72
2018-03-04T15:59:26.035Z,60.47
2018-03-04T16:03:40.447Z,52.60
2018-03-04T16:05:41.386Z,51.67
2018-03-04T16:07:42.338Z,51.05
2018-03-04T16:09:43.291Z,49.50
2018-03-04T16:12:06.183Z,50.17
2018-03-04T16:14:07.170Z,61.40
2018-03-04T16:16:08.441Z,56.20
2018-03-04T16:18:10.071Z,65.93
2018-03-04T16:20:11.543Z,52.87
2018-03-04T16:22:12.532Z,58.50
2018-03-04T16:24:13.504Z,55.73
2018-03-04T16:26:14.462Z,52.23
2018-03-04T16:28:15.452Z,53.20
2018-03-04T16:30:16.408Z,52.07
2018-03-04T16:32:17.391Z,50.37
2018-03-04T16:36:46.473Z,50.20
2018-03-04T16:38:57.681Z,45.93
2018-03-04T16:40:59.278Z,61.85
2018-03-04T16:43:20.512Z,53.90
2018-03-04T16:45:21.499Z,57.05
2018-03-04T16:47:22.532Z,53.83
2018-03-04T16:49:49.269Z,55.08
2018-03-04T16:51:50.229Z,52.90
2018-03-04T16:53:52.370Z,56.72
2018-03-04T16:55:53.424Z,51.80
2018-03-04T16:58:22.195Z,52.63
2018-03-04T17:03:00.732Z,50.15
2018-03-04T17:05:12.460Z,50.57
2018-03-04T17:13:23.828Z,59.53
2018-03-04T17:18:06.752Z,47.67
2018-03-04T17:20:07.751Z,45.60
2018-03-04T17:22:12.932Z,57.58
2018-03-04T17:24:14.001Z,50.30
2018-03-04T17:26:15.077Z,58.55
2018-03-04T17:28:16.213Z,50.80
2018-03-04T17:30:36.079Z,53.78
2018-03-04T17:32:44.151Z,46.50
2018-03-04T17:34:48.468Z,44.20
2018-03-04T17:37:05.129Z,46.10
2018-03-04T17:39:06.185Z,49.72
2018-03-04T17:41:07.240Z,48.10
2018-03-04T17:43:08.220Z,45.90
2018-03-04T17:45:09.985Z,45.37
2018-03-04T17:47:11.041Z,45.47
2018-03-04T17:49:17.046Z,56.97
2018-03-04T17:51:31.538Z,49.63
2018-03-04T17:53:32.802Z,48.37
2018-03-04T17:55:33.777Z,47.83
2018-03-04T17:57:36.636Z,49.80
2018-03-04T17:59:37.702Z,47.67
2018-03-04T18:01:50.733Z,47.77
2018-03-04T18:03:52.857Z,44.97
2018-03-04T18:05:53.876Z,43.60
2018-03-04T18:07:54.818Z,55.00
2018-03-04T18:09:55.769Z,48.53
2018-03-04T18:11:56.752Z,46.77
2018-03-04T18:13:57.722Z,46.77
2018-03-04T18:16:00.205Z,49.13
2018-03-04T18:18:07.797Z,49.20
2018-03-04T18:20:09.668Z,45.07
2018-03-04T18:22:25.249Z,45.03
2018-03-04T18:24:26.451Z,41.07
2018-03-04T18:26:27.385Z,54.67
2018-03-04T18:28:28.324Z,48.23
2018-03-04T18:30:35.741Z,49.50
2018-03-04T18:32:36.998Z,48.27
2018-03-04T18:34:38.086Z,45.33
2018-03-04T18:39:07.167Z,48.70
2018-03-04T18:41:16.244Z,45.93
2018-03-04T18:45:44.630Z,45.47
2018-03-04T18:50:14.542Z,57.78
2018-03-04T18:54:43.422Z,60.70
2018-03-04T18:56:46.216Z,51.37
2018-03-04T19:01:28.053Z,41.77
2018-03-04T19:03:29.149Z,52.47
2018-03-04T19:05:31.611Z,46.80
2018-03-04T19:07:32.672Z,45.73
2018-03-04T19:10:01.228Z,45.07
2018-03-04T19:12:02.221Z,49.03
2018-03-04T19:14:06.917Z,45.90
2018-03-04T19:16:18.982Z,45.42
2018-03-04T19:18:20.239Z,42.90
2018-03-04T19:20:21.254Z,43.40
2018-03-04T19:22:31.796Z,45.70
2018-03-04T19:24:45.772Z,39.80
2018-03-04T19:26:57.595Z,37.87
2018-03-04T19:28:59.246Z,37.00
2018-03-04T19:31:00.657Z,37.97
2018-03-04T19:33:01.850Z,40.97
2018-03-04T19:35:07.232Z,42.72
2018-03-04T19:37:09.727Z,41.53
2018-03-04T19:39:13.960Z,36.50
2018-03-04T19:41:15.669Z,46.92
2018-03-04T19:43:23.168Z,42.77
2018-03-04T19:45:24.164Z,41.60
2018-03-04T19:47:25.192Z,36.73
2018-03-04T19:49:26.257Z,38.50
2018-03-04T19:51:28.211Z,35.07
2018-03-04T19:53:29.281Z,34.37
2018-03-04T19:55:45.324Z,38.10
2018-03-04T20:00:18.173Z,28.63
2018-03-04T20:02:27.819Z,33.13
2018-03-04T20:04:31.658Z,41.63
2018-03-04T20:09:12.933Z,41.50
2018-03-04T20:11:28.359Z,38.90
2018-03-04T20:13:29.333Z,38.00
2018-03-04T20:15:30.345Z,37.57
2018-03-04T20:17:34.176Z,38.47
2018-03-04T20:22:11.165Z,37.57
2018-03-04T20:26:40.353Z,41.50
2018-03-04T20:28:41.400Z,45.58
2018-03-04T20:30:42.425Z,39.07
2018-03-04T20:32:43.417Z,44.20
2018-03-04T20:34:57.813Z,40.37
2018-03-04T20:36:58.956Z,39.00
2018-03-04T20:38:59.899Z,38.63
2018-03-04T20:41:00.986Z,36.67
2018-03-04T20:43:02.043Z,36.57
2018-03-04T20:45:03.158Z,38.77
2018-03-04T20:47:05.016Z,44.53
2018-03-04T20:49:06.170Z,39.13
2018-03-04T20:51:27.682Z,42.20
2018-03-04T20:53:28.688Z,37.90
2018-03-04T20:55:33.169Z,38.13
2018-03-04T20:57:34.144Z,38.80
2018-03-04T21:02:18.861Z,54.42
2018-03-04T21:04:19.835Z,44.20
2018-03-04T21:06:20.807Z,41.17
2018-03-04T21:08:21.823Z,39.87
2018-03-04T21:12:38.088Z,40.83
2018-03-04T21:14:39.066Z,38.30
2018-03-04T21:18:59.147Z,43.80
2018-03-04T21:21:00.112Z,44.97
2018-03-04T21:23:01.261Z,43.57
2018-03-04T21:25:02.389Z,44.97
2018-03-04T21:27:07.628Z,42.20
2018-03-04T21:32:09.781Z,48.55
2018-03-04T21:34:11.629Z,45.17
2018-03-04T21:36:12.768Z,37.97
2018-03-04T21:38:14.724Z,41.20
2018-03-04T21:40:16.252Z,45.67
2018-03-04T21:42:17.472Z,42.87
2018-03-04T21:44:18.500Z,42.60
2018-03-04T21:46:19.655Z,43.63
2018-03-04T21:48:20.905Z,41.50
2018-03-04T21:55:22.515Z,47.85
2018-03-04T21:57:23.529Z,42.60
2018-03-04T21:59:46.013Z,45.42
2018-03-04T22:01:47.313Z,39.20
2018-03-04T22:03:51.351Z,37.73
2018-03-04T22:05:54.528Z,39.67
2018-03-04T22:08:21.832Z,37.43
2018-03-04T22:10:23.711Z,37.53
2018-03-04T22:12:24.857Z,37.43
2018-03-04T22:17:23.069Z,38.80
2018-03-04T22:24:39.442Z,34.90
2018-03-04T22:26:40.574Z,38.67
2018-03-04T22:28:41.727Z,39.83
2018-03-04T22:30:42.797Z,35.63
2018-03-04T22:32:43.820Z,38.63
2018-03-04T22:37:27.348Z,41.05
2018-03-04T22:39:37.298Z,40.30
2018-03-04T22:43:52.609Z,38.77
2018-03-04T22:48:21.654Z,40.17
2018-03-04T22:50:37.667Z,39.53
2018-03-04T22:52:39.189Z,39.50
2018-03-04T22:54:47.608Z,37.97
2018-03-04T22:57:04.279Z,53.42
2018-03-04T22:59:05.631Z,47.30
2018-03-04T23:01:15.767Z,52.45
2018-03-04T23:03:19.503Z,45.93
2018-03-04T23:05:20.721Z,42.40
2018-03-04T23:07:26.181Z,38.67
2018-03-04T23:09:27.372Z,41.50
2018-03-04T23:11:38.302Z,39.57
2018-03-04T23:13:39.364Z,41.87
2018-03-04T23:15:40.406Z,51.55
2018-03-04T23:17:55.177Z,43.40
2018-03-04T23:20:01.994Z,44.83
2018-03-04T23:22:04.329Z,43.30
2018-03-04T23:24:05.409Z,44.83
2018-03-04T23:26:06.489Z,43.90
2018-03-04T23:28:07.498Z,44.70
2018-03-04T23:30:08.708Z,52.50
2018-03-04T23:32:38.340Z,51.10
2018-03-04T23:42:07.649Z,49.20
2018-03-04T23:54:09.975Z,48.40
2018-03-04T23:56:11.192Z,48.40
2018-03-04T23:58:20.526Z,47.73
